createdAt,value
2023-05-14T00:01:22.680Z,10.53
2023-05-14T00:06:24.080Z,10.50
2023-05-14T00:11:25.476Z,9.43
2023-05-14T00:16:26.912Z,10.13
2023-05-14T00:21:28.356Z,9.00
2023-05-14T00:26:29.832Z,10.07
2023-05-14T00:31:31.275Z,9.30
2023-05-14T00:36:32.727Z,9.87
2023-05-14T00:41:34.117Z,9.27
2023-05-14T00:46:35.578Z,9.20
2023-05-14T00:51:37.018Z,8.67
2023-05-14T00:56:38.428Z,9.77
2023-05-14T01:01:39.875Z,9.37
2023-05-14T01:06:41.301Z,9.00
2023-05-14T01:11:42.727Z,7.73
2023-05-14T01:16:44.188Z,8.83
2023-05-14T01:21:45.628Z,9.73
2023-05-14T01:26:47.049Z,8.60
2023-05-14T01:31:48.483Z,8.60
2023-05-14T01:36:49.911Z,8.83
2023-05-14T01:41:51.324Z,8.93
2023-05-14T01:46:52.704Z,8.87
2023-05-14T01:51:54.104Z,9.13
2023-05-14T01:56:55.514Z,9.50
2023-05-14T02:01:57.045Z,8.90
2023-05-14T02:06:58.645Z,8.30
2023-05-14T02:12:00.128Z,9.93
2023-05-14T02:17:01.539Z,8.60
2023-05-14T02:22:02.985Z,8.63
2023-05-14T02:27:04.409Z,8.73
2023-05-14T02:32:05.849Z,8.87
2023-05-14T02:37:07.293Z,9.60
2023-05-14T02:42:08.690Z,9.70
2023-05-14T02:47:10.229Z,10.07
2023-05-14T02:52:11.704Z,9.10
2023-05-14T02:57:13.106Z,8.63
2023-05-14T03:02:14.534Z,8.57
2023-05-14T03:07:16.357Z,8.07
2023-05-14T03:12:17.760Z,8.90
2023-05-14T03:17:19.252Z,7.80
2023-05-14T03:22:20.699Z,7.70
2023-05-14T03:27:22.104Z,8.37
2023-05-14T03:32:23.540Z,8.83
2023-05-14T03:37:24.948Z,8.20
2023-05-14T03:42:26.354Z,8.53
2023-05-14T03:47:27.775Z,8.00
2023-05-14T03:52:29.207Z,7.87
2023-05-14T03:57:30.605Z,8.10
2023-05-14T04:02:32.063Z,7.50
2023-05-14T04:07:33.493Z,7.77
2023-05-14T04:12:34.932Z,7.60
2023-05-14T04:17:36.397Z,8.13
2023-05-14T04:22:37.825Z,8.17
2023-05-14T04:27:39.237Z,7.90
2023-05-14T04:32:40.684Z,7.27
2023-05-14T04:37:42.100Z,7.63
2023-05-14T04:42:43.504Z,7.20
2023-05-14T04:47:44.963Z,8.43
2023-05-14T04:52:46.457Z,7.20
2023-05-14T04:57:47.884Z,7.80
2023-05-14T05:02:49.348Z,7.77
2023-05-14T05:07:50.786Z,7.37
2023-05-14T05:12:52.200Z,8.40
2023-05-14T05:17:53.686Z,7.00
2023-05-14T05:22:55.122Z,7.43
2023-05-14T05:27:56.548Z,7.70
2023-05-14T05:32:58.080Z,7.27
2023-05-14T05:38:01.505Z,7.33
2023-05-14T05:43:03.326Z,7.77
2023-05-14T05:48:04.807Z,7.40
2023-05-14T05:53:06.223Z,7.93
2023-05-14T05:58:07.634Z,7.60
2023-05-14T06:03:09.097Z,7.87
2023-05-14T06:08:10.557Z,6.87
2023-05-14T06:13:11.956Z,7.63
2023-05-14T06:18:13.370Z,7.33
2023-05-14T06:23:14.771Z,6.90
2023-05-14T06:28:16.167Z,6.10
2023-05-14T06:33:19.402Z,5.83
2023-05-14T06:38:22.020Z,6.40
2023-05-14T06:43:23.452Z,7.53
2023-05-14T06:48:24.902Z,6.93
2023-05-14T06:53:26.344Z,6.83
2023-05-14T06:58:27.737Z,7.50
2023-05-14T07:03:29.120Z,6.70
2023-05-14T07:08:30.525Z,8.47
2023-05-14T07:13:31.937Z,5.90
2023-05-14T07:18:33.385Z,7.67
2023-05-14T07:23:34.795Z,6.80
2023-05-14T07:28:36.190Z,6.67
2023-05-14T07:33:37.631Z,6.87
2023-05-14T07:38:39.047Z,6.13
2023-05-14T07:43:40.610Z,6.43
2023-05-14T07:48:42.078Z,5.80
2023-05-14T07:53:43.513Z,5.87
2023-05-14T07:58:44.904Z,6.27
2023-05-14T08:03:47.481Z,6.80
2023-05-14T08:08:48.987Z,6.40
2023-05-14T08:13:50.430Z,6.07
2023-05-14T08:18:51.968Z,6.30
2023-05-14T08:23:53.471Z,5.80
2023-05-14T08:28:54.897Z,5.80
2023-05-14T08:33:56.325Z,5.77
2023-05-14T08:38:57.745Z,6.07
2023-05-14T08:43:59.162Z,6.30
2023-05-14T08:49:00.666Z,6.27
2023-05-14T08:54:02.102Z,5.30
2023-05-14T08:59:03.527Z,5.43
2023-05-14T09:04:04.972Z,5.13
2023-05-14T09:09:06.403Z,5.93
2023-05-14T09:14:07.816Z,5.37
2023-05-14T09:19:09.265Z,5.57
2023-05-14T09:24:10.713Z,5.50
2023-05-14T09:29:12.165Z,4.53
2023-05-14T09:34:13.559Z,4.80
2023-05-14T09:39:14.961Z,4.27
2023-05-14T09:44:16.382Z,4.70
2023-05-14T09:49:17.797Z,3.93
2023-05-14T09:54:19.213Z,4.67
2023-05-14T09:59:20.615Z,4.73
2023-05-14T10:04:22.070Z,4.90
2023-05-14T10:09:23.519Z,5.20
2023-05-14T10:14:24.929Z,5.70
2023-05-14T10:19:26.397Z,4.60
2023-05-14T10:24:27.866Z,4.87
2023-05-14T10:29:29.265Z,4.30
2023-05-14T10:34:30.672Z,6.10
2023-05-14T10:39:32.083Z,5.10
2023-05-14T10:44:33.490Z,4.73
2023-05-14T10:49:42.877Z,4.63
2023-05-14T10:54:45.077Z,4.60
2023-05-14T10:59:46.477Z,4.80
2023-05-14T11:04:47.868Z,5.00
2023-05-14T11:09:49.263Z,4.70
2023-05-14T11:14:50.674Z,4.70
2023-05-14T11:19:52.069Z,5.33
2023-05-14T11:24:53.498Z,8.73
2023-05-14T11:29:54.914Z,4.83
2023-05-14T11:34:56.354Z,6.17
2023-05-14T11:39:57.768Z,5.30
2023-05-14T11:44:59.212Z,4.83
2023-05-14T11:50:00.661Z,6.17
2023-05-14T11:55:02.080Z,5.53
2023-05-14T12:00:03.495Z,4.93
2023-05-14T12:05:04.902Z,5.33
2023-05-14T12:10:06.304Z,4.73
2023-05-14T12:15:07.708Z,5.30
2023-05-14T12:20:09.111Z,4.57
2023-05-14T12:25:10.532Z,5.30
2023-05-14T12:30:34.260Z,4.60
2023-05-14T12:35:33.348Z,4.53
2023-05-14T12:40:34.752Z,3.87
2023-05-14T12:45:36.177Z,4.23
2023-05-14T12:50:37.577Z,4.70
2023-05-14T12:55:38.970Z,4.50
2023-05-14T13:00:40.401Z,4.30
2023-05-14T13:05:41.848Z,3.90
2023-05-14T13:10:43.285Z,4.13
2023-05-14T13:15:44.669Z,3.87
2023-05-14T13:20:46.061Z,3.80
2023-05-14T13:25:49.808Z,4.50
2023-05-14T13:30:51.513Z,3.83
2023-05-14T13:35:52.969Z,4.60
2023-05-14T13:40:54.404Z,4.50
2023-05-14T13:45:55.891Z,3.93
2023-05-14T13:50:57.315Z,3.90
2023-05-14T13:55:58.712Z,4.10
2023-05-14T14:01:00.133Z,5.70
2023-05-14T14:06:01.613Z,3.90
2023-05-14T14:11:03.121Z,4.03
2023-05-14T14:16:04.586Z,4.20
2023-05-14T14:21:06.025Z,4.43
2023-05-14T14:26:07.463Z,3.60
2023-05-14T14:31:08.951Z,4.50
2023-05-14T14:36:10.469Z,3.20
2023-05-14T14:41:11.874Z,4.37
2023-05-14T14:46:13.303Z,3.40
2023-05-14T14:51:14.740Z,4.50
2023-05-14T14:56:16.129Z,3.60
2023-05-14T15:01:17.586Z,3.43
2023-05-14T15:06:19.008Z,4.03
2023-05-14T15:11:20.402Z,3.00
2023-05-14T15:16:21.824Z,3.23
2023-05-14T15:21:23.249Z,3.50
2023-05-14T15:26:24.664Z,4.27
2023-05-14T15:31:26.135Z,3.60
2023-05-14T15:36:27.550Z,3.90
2023-05-14T15:41:28.959Z,4.30
2023-05-14T15:46:30.423Z,3.80
2023-05-14T15:51:31.855Z,3.60
2023-05-14T15:56:33.264Z,4.07
2023-05-14T16:01:34.693Z,6.93
2023-05-14T16:06:36.120Z,4.37
2023-05-14T16:11:37.518Z,4.90
2023-05-14T16:16:38.979Z,4.10
2023-05-14T16:21:40.405Z,5.30
2023-05-14T16:26:41.831Z,5.20
2023-05-14T16:31:43.298Z,3.70
2023-05-14T16:36:44.710Z,4.00
2023-05-14T16:41:46.107Z,5.13
2023-05-14T16:46:47.516Z,4.77
2023-05-14T16:51:48.910Z,4.20
2023-05-14T16:56:50.313Z,5.10
2023-05-14T17:01:51.763Z,4.70
2023-05-14T17:06:53.193Z,4.73
2023-05-14T17:11:54.657Z,4.30
2023-05-14T17:16:56.073Z,4.93
2023-05-14T17:21:57.499Z,5.10
2023-05-14T17:26:58.898Z,4.43
2023-05-14T17:32:00.432Z,3.90
2023-05-14T17:37:01.875Z,5.30
2023-05-14T17:42:03.297Z,5.27
2023-05-14T17:47:04.893Z,5.23
2023-05-14T17:52:06.386Z,4.93
2023-05-14T17:57:08.176Z,4.30
2023-05-14T18:02:09.583Z,4.90
2023-05-14T18:07:10.977Z,7.13
2023-05-14T18:12:12.385Z,4.97
2023-05-14T18:17:13.780Z,5.17
2023-05-14T18:22:15.218Z,4.60
2023-05-14T18:27:16.629Z,9.53
2023-05-14T18:32:18.023Z,5.40
2023-05-14T18:37:19.440Z,5.20
2023-05-14T18:42:20.849Z,4.57
2023-05-14T18:47:22.262Z,5.67
2023-05-14T18:52:23.676Z,5.40
2023-05-14T18:57:25.083Z,4.33
2023-05-14T19:02:26.546Z,4.90
2023-05-14T19:07:27.986Z,5.40
2023-05-14T19:12:29.385Z,4.50
2023-05-14T19:17:30.824Z,4.60
2023-05-14T19:22:32.269Z,5.00
2023-05-14T19:27:33.683Z,4.40
2023-05-14T19:32:35.115Z,4.80
2023-05-14T19:37:36.540Z,4.40
2023-05-14T19:42:37.979Z,4.83
2023-05-14T19:47:39.499Z,6.40
2023-05-14T19:52:41.046Z,5.53
2023-05-14T19:57:42.479Z,5.07
2023-05-14T20:02:43.966Z,5.03
2023-05-14T20:07:45.418Z,4.77
2023-05-14T20:12:46.828Z,5.30
2023-05-14T20:17:48.273Z,4.73
2023-05-14T20:22:49.734Z,4.90
2023-05-14T20:27:51.149Z,5.17
2023-05-14T20:32:52.587Z,4.77
2023-05-14T20:37:54.062Z,4.80
2023-05-14T20:42:55.448Z,5.20
2023-05-14T20:47:56.887Z,4.60
2023-05-14T20:52:58.298Z,4.90
2023-05-14T20:57:59.708Z,4.50
2023-05-14T21:03:01.274Z,4.80
2023-05-14T21:08:02.814Z,5.43
2023-05-14T21:13:04.234Z,5.20
2023-05-14T21:18:05.717Z,5.13
2023-05-14T21:23:07.122Z,5.30
2023-05-14T21:28:08.535Z,5.00
2023-05-14T21:33:10.058Z,4.83
2023-05-14T21:38:11.522Z,5.20
2023-05-14T21:43:12.936Z,5.00
2023-05-14T21:48:14.529Z,5.27
2023-05-14T21:53:16.007Z,5.03
2023-05-14T21:58:17.406Z,5.27
2023-05-14T22:03:18.879Z,4.90
2023-05-14T22:08:20.282Z,5.23
2023-05-14T22:13:21.673Z,5.10
2023-05-14T22:18:23.085Z,4.73
2023-05-14T22:23:24.512Z,4.80
2023-05-14T22:28:25.924Z,5.73
2023-05-14T22:33:27.321Z,5.20
2023-05-14T22:38:28.740Z,5.20
2023-05-14T22:43:30.160Z,4.87
2023-05-14T22:48:31.582Z,6.13
2023-05-14T22:53:33.027Z,6.00
2023-05-14T22:58:34.444Z,5.80
2023-05-14T23:03:35.864Z,5.53
2023-05-14T23:08:37.263Z,5.57
2023-05-14T23:13:38.651Z,5.57
2023-05-14T23:18:40.168Z,5.80
2023-05-14T23:23:41.719Z,6.73
2023-05-14T23:28:43.168Z,6.80
2023-05-14T23:33:44.898Z,8.20
2023-05-14T23:38:46.374Z,7.50
2023-05-14T23:43:47.796Z,7.03
2023-05-14T23:48:49.211Z,8.23
2023-05-14T23:53:50.621Z,7.97
2023-05-14T23:58:52.034Z,8.73
